Time;durP1;ratioP1;P1;durP2;ratioP2;P2;SDS_P1;SDS_P2;PMS_P1;PMS_P2;Temp;Humidity;BMP_temperature;BMP_pressure;BME280_temperature;BME280_humidity;BME280_pressure;Samples;Min_cycle;Max_cycle;Signal;HPM_P1;HPM_P2
2023/04/08 00:01:16;;;;;;;8.57;5.90;;;;;;;8.41;72.36;102317.13;6159400;28;20735;-70
2023/04/08 00:04:37;;;;;;;6.60;5.43;;;;;;;8.41;72.10;102317.13;6162533;28;20222;-70
2023/04/08 00:07:58;;;;;;;6.10;5.43;;;;;;;8.35;72.91;102325.53;6159987;28;20504;-71
2023/04/08 00:11:19;;;;;;;5.40;4.47;;;;;;;8.41;72.30;102323.25;6149640;28;20660;-71
2023/04/08 00:14:40;;;;;;;5.90;5.27;;;;;;;8.25;73.93;102330.59;6139720;28;20235;-71
2023/04/08 00:18:02;;;;;;;6.03;5.37;;;;;;;8.22;74.41;102338.72;6157176;28;20243;-70
2023/04/08 00:21:23;;;;;;;6.47;5.40;;;;;;;8.26;73.92;102334.91;6416746;23;20384;-71
2023/04/08 00:24:44;;;;;;;17.53;7.80;;;;;;;8.36;73.39;102335.09;6191906;28;20244;-71
2023/04/08 00:28:05;;;;;;;8.63;5.77;;;;;;;8.31;73.50;102332.78;6207258;28;20307;-71
2023/04/08 00:31:26;;;;;;;7.87;5.73;;;;;;;8.39;73.95;102333.03;6184412;28;20257;-71
2023/04/08 00:34:48;;;;;;;9.17;5.73;;;;;;;8.38;73.12;102327.91;6193063;28;20228;-70
2023/04/08 00:38:10;;;;;;;6.97;5.77;;;;;;;8.26;73.50;102334.06;6187019;28;20606;-71
2023/04/08 00:41:33;;;;;;;6.20;4.33;;;;;;;8.34;73.29;102331.75;6179791;28;20229;-71
2023/04/08 00:44:54;;;;;;;5.50;5.00;;;;;;;8.33;73.56;102333.53;6190141;28;20241;-71
2023/04/08 00:48:15;;;;;;;5.73;5.07;;;;;;;8.42;73.08;102335.44;6200435;28;20229;-71
2023/04/08 00:51:38;;;;;;;6.07;4.67;;;;;;;8.38;73.97;102338.41;6189218;28;20351;-70
2023/04/08 00:54:59;;;;;;;8.13;5.60;;;;;;;8.40;73.14;102333.88;6183416;28;20619;-71
2023/04/08 00:58:19;;;;;;;6.30;5.70;;;;;;;8.37;73.56;102336.75;6197054;28;20233;-71
2023/04/08 01:01:45;;;;;;;9.00;5.80;;;;;;;8.30;73.54;102338.16;6206966;28;20271;-71
2023/04/08 01:05:09;;;;;;;5.30;4.33;;;;;;;8.33;72.80;102336.16;6201271;28;20229;-70
2023/04/08 01:08:36;;;;;;;4.93;4.30;;;;;;;8.38;72.59;102341.88;6191206;28;20498;-70
2023/04/08 01:11:59;;;;;;;5.53;4.13;;;;;;;8.32;73.29;102339.75;6194530;28;20236;-70
2023/04/08 01:15:22;;;;;;;9.40;5.03;;;;;;;8.27;73.47;102336.59;6199224;28;20233;-70
2023/04/08 01:18:45;;;;;;;6.47;3.80;;;;;;;8.20;73.54;102351.16;6185083;28;20254;-70
2023/04/08 01:22:12;;;;;;;4.70;4.30;;;;;;;8.16;73.70;102342.66;6197136;28;20229;-70
2023/04/08 01:25:36;;;;;;;6.47;4.80;;;;;;;8.19;73.34;102342.44;6180726;28;20505;-70
2023/04/08 01:29:01;;;;;;;5.83;5.10;;;;;;;8.29;73.44;102347.84;6194043;28;20562;-71
2023/04/08 01:32:22;;;;;;;5.17;4.57;;;;;;;8.37;72.86;102331.47;6185565;28;20225;-71
2023/04/08 01:35:45;;;;;;;7.40;6.33;;;;;;;8.42;72.72;102338.06;6183963;28;20242;-71
2023/04/08 01:39:07;;;;;;;5.13;4.63;;;;;;;8.30;73.15;102325.84;6180432;28;20233;-71
2023/04/08 01:42:29;;;;;;;4.50;3.70;;;;;;;8.39;72.78;102334.84;6209131;28;20228;-70
2023/04/08 01:45:56;;;;;;;6.17;5.50;;;;;;;8.37;73.48;102326.22;6195116;28;20233;-71
2023/04/08 01:49:18;;;;;;;6.43;4.77;;;;;;;8.29;73.46;102332.06;6181164;28;20256;-70
2023/04/08 01:52:40;;;;;;;6.07;5.40;;;;;;;8.29;73.10;102329.44;6192045;28;20221;-70
2023/04/08 01:56:06;;;;;;;6.23;5.37;;;;;;;8.30;73.75;102320.59;6194713;28;20225;-72
2023/04/08 01:59:31;;;;;;;8.50;6.23;;;;;;;8.20;73.99;102314.34;6175151;28;20560;-71
2023/04/08 02:02:54;;;;;;;7.67;3.77;;;;;;;8.26;73.64;102316.50;6188502;28;20217;-71
2023/04/08 02:06:15;;;;;;;7.43;5.13;;;;;;;8.19;73.97;102310.88;6183882;28;20257;-71
2023/04/08 02:09:37;;;;;;;6.63;5.27;;;;;;;8.17;73.72;102315.41;6183586;28;20623;-72
2023/04/08 02:12:58;;;;;;;4.83;4.20;;;;;;;8.07;74.32;102317.06;6190371;28;20410;-71
2023/04/08 02:16:25;;;;;;;5.63;5.00;;;;;;;8.01;74.37;102311.44;6197151;28;20240;-71
2023/04/08 02:19:52;;;;;;;4.67;3.80;;;;;;;8.05;74.24;102305.81;6197075;28;20594;-72
2023/04/08 02:23:19;;;;;;;5.63;3.23;;;;;;;8.09;74.27;102309.06;6192323;28;20316;-71
2023/04/08 02:26:43;;;;;;;4.00;3.60;;;;;;;8.14;73.90;102301.63;6200436;28;20237;-71
2023/04/08 02:30:07;;;;;;;5.37;4.37;;;;;;;8.15;74.38;102308.56;6198354;28;20233;-71
2023/04/08 02:33:29;;;;;;;4.53;3.93;;;;;;;8.16;73.47;102316.34;6207315;28;20229;-71
2023/04/08 02:36:53;;;;;;;5.13;4.63;;;;;;;8.16;74.03;102312.88;6195651;28;20225;-71
2023/04/08 02:40:25;;;;;;;4.20;3.80;;;;;;;8.08;74.05;102310.03;6180422;28;20607;-71
2023/04/08 02:43:46;;;;;;;4.80;3.83;;;;;;;8.10;73.56;102311.59;6197396;28;20245;-72
2023/04/08 02:47:07;;;;;;;4.47;4.07;;;;;;;7.98;74.07;102316.91;6193911;28;20229;-71
2023/04/08 02:50:29;;;;;;;3.80;3.50;;;;;;;8.03;73.95;102326.13;6178961;28;20238;-73
2023/04/08 02:53:51;;;;;;;6.07;5.17;;;;;;;8.07;73.91;102324.13;6188446;28;20233;-71
2023/04/08 02:57:12;;;;;;;4.40;4.07;;;;;;;7.97;73.74;102325.75;6198183;28;20237;-72
2023/04/08 03:00:33;;;;;;;5.77;4.40;;;;;;;7.78;74.90;102323.66;6203158;28;20247;-71
2023/04/08 03:03:54;;;;;;;3.50;3.20;;;;;;;7.73;75.46;102318.75;6204692;28;20237;-72
2023/04/08 03:07:14;;;;;;;5.63;4.63;;;;;;;7.76;75.79;102328.19;6213276;28;20220;-72
2023/04/08 03:10:36;;;;;;;7.53;3.53;;;;;;;7.79;75.41;102320.09;6185898;28;20257;-71
2023/04/08 03:13:58;;;;;;;5.00;4.23;;;;;;;7.76;75.53;102323.78;6204507;28;20233;-71
2023/04/08 03:17:18;;;;;;;5.93;4.67;;;;;;;7.75;75.25;102327.34;6201113;28;20363;-71
2023/04/08 03:20:40;;;;;;;5.77;5.17;;;;;;;7.82;75.19;102338.25;6203101;28;20272;-71
2023/04/08 03:24:00;;;;;;;9.00;5.47;;;;;;;7.81;75.27;102339.22;6200226;28;20233;-70
2023/04/08 03:27:23;;;;;;;7.20;5.23;;;;;;;7.85;75.57;102340.66;6203286;28;20590;-70
2023/04/08 03:30:43;;;;;;;4.90;4.50;;;;;;;7.84;75.49;102350.34;6199239;28;20245;-71
2023/04/08 03:34:04;;;;;;;6.07;5.17;;;;;;;7.87;75.30;102351.91;6197960;28;20510;-72
2023/04/08 03:37:25;;;;;;;5.83;4.97;;;;;;;7.77;75.37;102345.63;6214699;28;20552;-71
2023/04/08 03:40:46;;;;;;;8.70;6.10;;;;;;;7.73;76.01;102349.44;6195384;28;20240;-71
2023/04/08 03:44:08;;;;;;;6.57;5.23;;;;;;;7.86;75.18;102355.50;6194666;28;20237;-70
2023/04/08 03:47:30;;;;;;;10.20;5.43;;;;;;;7.83;75.59;102359.19;6195126;28;20229;-70
2023/04/08 03:50:51;;;;;;;7.43;6.00;;;;;;;7.73;76.11;102357.31;6183265;28;20234;-72
2023/04/08 03:54:12;;;;;;;8.97;5.60;;;;;;;7.71;76.64;102354.81;6193613;28;20396;-70
2023/04/08 03:57:32;;;;;;;8.80;7.13;;;;;;;7.58;77.46;102364.56;6209305;28;20221;-72
2023/04/08 04:00:54;;;;;;;12.30;7.50;;;;;;;7.60;76.87;102365.28;6198620;28;20324;-72
2023/04/08 04:04:15;;;;;;;9.73;6.80;;;;;;;7.65;77.16;102365.78;6194542;28;20237;-71
2023/04/08 04:07:36;;;;;;;10.53;8.27;;;;;;;7.64;76.87;102363.28;6196949;28;20516;-71
2023/04/08 04:10:58;;;;;;;12.77;6.77;;;;;;;7.67;76.94;102376.19;6201204;28;20241;-71
2023/04/08 04:14:19;;;;;;;11.70;7.73;;;;;;;7.66;78.00;102377.16;6196910;28;20245;-71
2023/04/08 04:17:42;;;;;;;9.17;7.13;;;;;;;7.63;77.46;102370.31;6203035;28;20251;-72
2023/04/08 04:21:05;;;;;;;8.47;6.37;;;;;;;7.65;77.42;102373.69;6199647;28;20242;-71
2023/04/08 04:24:26;;;;;;;11.37;8.00;;;;;;;7.61;77.43;102380.09;6203423;28;20283;-71
2023/04/08 04:27:48;;;;;;;11.27;7.90;;;;;;;7.57;77.92;102391.78;6208691;28;20232;-71
2023/04/08 04:31:08;;;;;;;11.33;7.27;;;;;;;7.51;78.24;102385.16;6200546;28;20221;-71
2023/04/08 04:34:31;;;;;;;12.83;6.67;;;;;;;7.45;78.80;102383.00;6196161;28;20237;-70
2023/04/08 04:37:52;;;;;;;9.67;7.33;;;;;;;7.52;78.62;102386.00;6209297;28;20574;-71
2023/04/08 04:41:13;;;;;;;8.33;6.30;;;;;;;7.54;78.24;102386.75;6179116;28;20245;-70
2023/04/08 04:44:34;;;;;;;8.33;7.47;;;;;;;7.54;78.40;102395.47;6196452;28;20245;-71
2023/04/08 04:47:55;;;;;;;8.57;6.23;;;;;;;7.48;78.58;102395.91;6206983;28;20229;-71
2023/04/08 04:51:17;;;;;;;7.80;5.90;;;;;;;7.48;79.07;102405.56;6175637;28;20410;-71
2023/04/08 04:54:38;;;;;;;9.93;6.47;;;;;;;7.47;78.93;102415.22;6202925;28;20222;-71
2023/04/08 04:57:59;;;;;;;7.57;6.40;;;;;;;7.46;78.84;102417.97;6211481;28;20646;-70
2023/04/08 05:01:19;;;;;;;14.80;7.33;;;;;;;7.42;79.51;102420.00;6197898;28;20233;-70
2023/04/08 05:04:40;;;;;;;11.20;7.57;;;;;;;7.53;79.25;102413.97;6189495;28;20237;-71
2023/04/08 05:08:03;;;;;;;10.17;7.00;;;;;;;7.53;79.37;102420.06;6205204;28;20249;-72
2023/04/08 05:11:23;;;;;;;9.13;6.87;;;;;;;7.57;79.37;102412.81;6195493;28;20253;-71
2023/04/08 05:14:45;;;;;;;8.30;6.47;;;;;;;7.60;78.77;102414.38;6196329;28;20233;-71
2023/04/08 05:18:05;;;;;;;10.70;8.20;;;;;;;7.69;78.44;102416.31;6208780;28;20253;-72
2023/04/08 05:21:26;;;;;;;9.87;5.97;;;;;;;7.61;78.00;102421.31;6177904;28;20225;-71
2023/04/08 05:24:49;;;;;;;9.50;6.13;;;;;;;7.62;78.99;102420.34;6199860;28;20316;-72
2023/04/08 05:28:10;;;;;;;13.07;6.30;;;;;;;7.70;78.80;102418.00;6193761;28;20348;-71
2023/04/08 05:31:30;;;;;;;9.83;6.60;;;;;;;7.68;78.45;102422.56;6179661;28;20593;-72
2023/04/08 05:34:51;;;;;;;12.43;7.80;;;;;;;7.68;78.76;102422.56;6169572;28;20227;-71
2023/04/08 05:38:12;;;;;;;10.97;6.97;;;;;;;7.62;78.80;102430.88;6203109;28;20237;-71
2023/04/08 05:41:34;;;;;;;11.27;6.93;;;;;;;7.48;79.47;102435.31;6197415;28;20233;-70
2023/04/08 05:44:55;;;;;;;8.63;6.63;;;;;;;7.51;79.16;102439.50;6196300;28;20630;-71
2023/04/08 05:48:16;;;;;;;7.97;6.17;;;;;;;7.58;79.26;102442.53;6205835;28;20611;-70
2023/04/08 05:51:37;;;;;;;8.73;6.47;;;;;;;7.56;79.71;102442.66;6206028;28;20257;-70
2023/04/08 05:54:58;;;;;;;8.63;6.07;;;;;;;7.61;79.73;102443.16;6194061;28;20233;-70
2023/04/08 05:58:20;;;;;;;13.47;8.03;;;;;;;7.63;79.25;102435.19;6208753;28;20249;-70
2023/04/08 06:01:41;;;;;;;9.00;6.50;;;;;;;7.66;78.77;102448.09;6175936;28;20500;-71
2023/04/08 06:05:03;;;;;;;9.30;6.70;;;;;;;7.62;79.44;102439.59;6189200;28;20225;-71
2023/04/08 06:08:24;;;;;;;8.20;6.90;;;;;;;7.73;79.23;102447.53;6200328;28;20229;-70
2023/04/08 06:11:48;;;;;;;9.77;6.20;;;;;;;7.71;79.34;102451.22;6205168;28;20372;-71
2023/04/08 06:15:10;;;;;;;7.83;7.03;;;;;;;7.58;79.52;102456.53;6175817;28;20380;-71
2023/04/08 06:18:31;;;;;;;9.73;7.10;;;;;;;7.63;79.32;102462.28;6194596;28;20233;-71
2023/04/08 06:21:57;;;;;;;7.53;6.77;;;;;;;7.67;79.11;102466.38;6210860;28;20225;-70
2023/04/08 06:25:18;;;;;;;7.03;5.63;;;;;;;7.40;80.03;102470.97;6184908;28;20230;-72
2023/04/08 06:28:39;;;;;;;11.10;7.10;;;;;;;7.33;79.72;102477.59;6194319;28;20229;-70
2023/04/08 06:32:01;;;;;;;13.70;7.67;;;;;;;7.42;79.52;102480.44;6208783;28;20524;-71
2023/04/08 06:35:21;;;;;;;7.17;5.90;;;;;;;7.41;79.19;102475.28;6180350;28;20237;-71
2023/04/08 06:38:42;;;;;;;9.63;6.67;;;;;;;7.45;79.31;102484.63;6193015;28;20241;-72
2023/04/08 06:42:03;;;;;;;8.07;5.17;;;;;;;7.53;79.38;102493.63;6206922;28;20236;-71
2023/04/08 06:45:36;;;;;;;10.50;6.93;;;;;;;7.64;78.75;102492.03;6179577;28;20241;-71
2023/04/08 06:49:03;;;;;;;11.90;8.87;;;;;;;7.61;78.84;102492.25;6165357;28;20253;-71
2023/04/08 06:52:24;;;;;;;12.20;9.40;;;;;;;7.59;79.63;102495.00;6184744;28;20233;-70
2023/04/08 06:55:44;;;;;;;16.03;10.17;;;;;;;7.58;79.82;102505.59;6197991;28;20229;-71
2023/04/08 06:59:05;;;;;;;9.67;7.47;;;;;;;7.62;79.31;102494.78;6189383;28;20229;-71
2023/04/08 07:02:26;;;;;;;12.57;5.80;;;;;;;7.59;79.21;102502.03;6201807;28;20508;-70
2023/04/08 07:05:48;;;;;;;9.80;6.30;;;;;;;7.55;79.73;102514.53;6184761;28;20241;-71
2023/04/08 07:09:09;;;;;;;11.70;6.67;;;;;;;7.60;79.59;102511.59;6193792;28;20233;-71
2023/04/08 07:12:30;;;;;;;10.23;6.37;;;;;;;7.56;79.25;102516.22;6201954;28;20237;-69
2023/04/08 07:15:51;;;;;;;8.20;6.67;;;;;;;7.57;79.09;102507.41;6197742;28;20229;-71
2023/04/08 07:19:12;;;;;;;8.80;6.30;;;;;;;7.61;79.04;102513.28;6197711;28;20951;-70
2023/04/08 07:22:34;;;;;;;8.93;6.23;;;;;;;7.68;78.46;102519.78;6206563;28;20238;-69
2023/04/08 07:25:55;;;;;;;10.43;5.83;;;;;;;7.71;78.01;102516.91;6193469;28;20328;-70
2023/04/08 07:29:16;;;;;;;10.20;5.47;;;;;;;7.70;78.93;102521.34;6201008;28;20225;-70
2023/04/08 07:32:36;;;;;;;6.77;5.70;;;;;;;7.81;77.67;102521.44;6203362;28;20324;-70
2023/04/08 07:35:58;;;;;;;8.77;6.27;;;;;;;7.86;77.81;102526.38;6198584;28;20241;-71
2023/04/08 07:39:20;;;;;;;7.57;5.77;;;;;;;7.91;77.46;102533.94;6190519;28;20241;-71
2023/04/08 07:42:41;;;;;;;7.97;5.13;;;;;;;8.05;77.29;102534.59;6199805;28;20256;-70
2023/04/08 07:46:02;;;;;;;9.80;6.83;;;;;;;8.08;76.56;102534.38;6199856;28;20627;-71
2023/04/08 07:49:23;;;;;;;9.77;7.53;;;;;;;8.08;76.13;102536.19;6164036;28;20233;-70
2023/04/08 07:52:44;;;;;;;8.60;6.33;;;;;;;7.88;78.23;102537.63;6201395;28;20512;-70
2023/04/08 07:56:11;;;;;;;9.70;7.17;;;;;;;8.12;77.21;102545.53;6191634;28;20496;-71
2023/04/08 07:59:32;;;;;;;9.37;7.20;;;;;;;8.17;76.45;102546.84;6202404;28;20229;-70
2023/04/08 08:02:53;;;;;;;6.53;5.83;;;;;;;8.30;76.46;102545.97;6208215;28;20253;-71
2023/04/08 08:06:14;;;;;;;10.37;7.10;;;;;;;8.14;77.02;102557.59;6169328;28;20519;-70
2023/04/08 08:09:35;;;;;;;11.93;9.20;;;;;;;8.21;76.81;102560.63;6189422;28;20238;-71
2023/04/08 08:12:57;;;;;;;15.17;7.27;;;;;;;8.18;76.41;102563.47;6192999;28;20341;-71
2023/04/08 08:16:18;;;;;;;7.23;6.03;;;;;;;8.13;77.11;102558.53;6181025;28;20222;-71
2023/04/08 08:19:40;;;;;;;9.40;7.17;;;;;;;8.04;78.00;102563.63;6200542;28;20506;-70
2023/04/08 08:23:01;;;;;;;10.23;6.97;;;;;;;7.87;77.95;102570.94;6204724;28;20490;-70
2023/04/08 08:26:21;;;;;;;6.93;6.13;;;;;;;7.88;77.35;102572.63;6202666;28;20233;-71
2023/04/08 08:29:44;;;;;;;10.60;7.67;;;;;;;8.14;77.26;102565.47;6198909;28;20237;-70
2023/04/08 08:33:04;;;;;;;10.83;6.13;;;;;;;8.25;76.85;102564.72;6201372;28;20331;-71
2023/04/08 08:36:26;;;;;;;7.83;6.30;;;;;;;8.22;76.47;102570.22;6176391;28;20229;-71
2023/04/08 08:39:47;;;;;;;6.30;5.63;;;;;;;8.14;76.50;102577.78;6191414;28;20545;-71
2023/04/08 08:43:09;;;;;;;13.80;9.90;;;;;;;8.18;76.94;102579.25;6202431;28;20264;-70
2023/04/08 08:46:31;;;;;;;9.63;7.13;;;;;;;8.31;76.48;102568.72;6173746;28;20245;-71
2023/04/08 08:49:52;;;;;;;8.57;6.10;;;;;;;8.49;75.11;102578.75;6189637;28;20236;-69
2023/04/08 08:53:13;;;;;;;8.73;5.80;;;;;;;8.47;74.66;102577.19;6204352;28;20253;-71
2023/04/08 08:56:34;;;;;;;8.40;6.70;;;;;;;8.21;75.96;102593.03;6183273;28;20636;-70
2023/04/08 08:59:55;;;;;;;10.10;5.20;;;;;;;8.28;76.15;102593.44;6186341;28;20777;-72
2023/04/08 09:03:19;;;;;;;17.87;6.70;;;;;;;8.43;74.90;102592.34;6201953;28;20222;-70
2023/04/08 09:06:40;;;;;;;6.40;5.07;;;;;;;8.61;74.16;102584.06;6202221;28;20246;-70
2023/04/08 09:10:01;;;;;;;7.80;6.10;;;;;;;8.52;74.84;102582.97;6194854;28;20264;-70
2023/04/08 09:13:23;;;;;;;5.03;4.53;;;;;;;8.67;74.27;102592.34;6206321;28;20256;-71
2023/04/08 09:16:44;;;;;;;8.13;5.60;;;;;;;8.69;73.69;102597.50;6211146;28;20229;-72
2023/04/08 09:20:10;;;;;;;5.67;5.17;;;;;;;8.67;73.81;102599.41;6183210;28;20887;-71
2023/04/08 09:23:42;;;;;;;12.03;9.00;;;;;;;8.79;74.12;102595.88;6199924;28;20234;-70
2023/04/08 09:27:03;;;;;;;10.30;6.70;;;;;;;8.92;73.38;102596.66;6202306;28;20260;-71
2023/04/08 09:30:26;;;;;;;5.17;4.67;;;;;;;9.04;73.00;102600.13;6199246;28;20245;-70
2023/04/08 09:33:48;;;;;;;12.40;6.10;;;;;;;8.94;72.95;102605.28;6190225;28;20234;-71
2023/04/08 09:37:10;;;;;;;6.40;5.40;;;;;;;8.80;73.53;102606.31;6197855;28;20240;-70
2023/04/08 09:40:34;;;;;;;6.97;5.23;;;;;;;8.85;73.04;102609.41;6199533;28;20229;-70
2023/04/08 09:43:58;;;;;;;7.07;5.87;;;;;;;8.87;72.77;102614.56;6195938;28;20308;-70
2023/04/08 09:47:27;;;;;;;7.50;5.03;;;;;;;8.97;73.04;102612.09;6204214;28;20236;-71
2023/04/08 09:50:51;;;;;;;8.00;5.03;;;;;;;8.95;73.23;102614.00;6178438;28;20233;-70
2023/04/08 09:54:18;;;;;;;7.87;5.80;;;;;;;8.82;73.14;102622.81;6193665;28;20261;-71
2023/04/08 09:57:42;;;;;;;6.37;5.73;;;;;;;8.96;73.67;102616.53;6202056;28;20229;-72
2023/04/08 10:01:04;;;;;;;8.77;6.10;;;;;;;8.97;73.23;102615.59;6194394;28;20229;-72
2023/04/08 10:04:28;;;;;;;6.90;5.20;;;;;;;8.96;72.81;102619.16;6198313;28;20233;-71
2023/04/08 10:07:50;;;;;;;8.83;6.87;;;;;;;8.98;73.23;102614.63;6196402;28;20626;-71
2023/04/08 10:11:14;;;;;;;7.17;5.00;;;;;;;9.02;73.34;102613.44;6170881;28;20539;-71
2023/04/08 10:14:35;;;;;;;7.20;5.77;;;;;;;9.07;73.32;102607.81;6198882;28;20237;-72
2023/04/08 10:18:18;;;;;;;8.87;6.13;;;;;;;9.02;72.82;102612.63;6209153;28;20835;-72
2023/04/08 10:21:42;;;;;;;7.77;5.90;;;;;;;8.96;73.43;102613.91;6176667;28;20237;-70
2023/04/08 10:25:31;;;;;;;7.93;6.00;;;;;;;9.07;73.07;102619.19;6185545;28;20302;-70
2023/04/08 10:28:55;;;;;;;11.27;6.50;;;;;;;8.90;73.87;102614.34;6181741;28;20245;-72
2023/04/08 10:32:29;;;;;;;11.83;7.07;;;;;;;8.94;73.13;102621.06;6186532;28;20257;-71
2023/04/08 10:35:54;;;;;;;8.17;6.43;;;;;;;8.93;73.47;102621.19;6173414;28;20276;-71
2023/04/08 10:39:21;;;;;;;7.33;6.63;;;;;;;8.74;74.11;102629.59;6191797;28;20242;-71
2023/04/08 10:42:42;;;;;;;12.80;7.50;;;;;;;8.85;74.23;102624.38;6200214;28;20485;-70
2023/04/08 10:46:05;;;;;;;8.37;6.10;;;;;;;8.89;73.39;102624.03;6200553;28;20244;-72
2023/04/08 10:49:33;;;;;;;8.67;7.17;;;;;;;9.02;73.59;102623.97;6192842;28;20635;-70
2023/04/08 10:52:54;;;;;;;5.27;4.40;;;;;;;9.05;73.61;102628.16;6197015;28;20226;-70
2023/04/08 10:56:17;;;;;;;7.87;5.87;;;;;;;8.82;73.70;102624.59;6190146;28;20228;-72
2023/04/08 10:59:38;;;;;;;6.80;6.13;;;;;;;9.07;73.20;102626.25;6188827;28;20308;-71
2023/04/08 11:03:02;;;;;;;7.57;6.13;;;;;;;9.23;72.48;102619.72;6191779;28;20233;-71
2023/04/08 11:06:23;;;;;;;7.10;4.93;;;;;;;9.25;71.89;102628.38;6196410;28;20221;-71
2023/04/08 11:09:44;;;;;;;7.00;5.60;;;;;;;9.29;72.12;102633.38;6199470;28;20232;-71
2023/04/08 11:13:07;;;;;;;9.80;6.30;;;;;;;8.88;73.19;102634.69;6217872;28;20591;-73
2023/04/08 11:16:28;;;;;;;9.17;6.07;;;;;;;8.77;74.16;102630.22;6199569;28;20229;-71
2023/04/08 11:19:52;;;;;;;9.87;6.33;;;;;;;8.97;73.45;102630.53;6191198;28;20230;-68
2023/04/08 11:23:13;;;;;;;7.20;5.57;;;;;;;9.00;73.31;102627.69;6197447;28;20237;-71
2023/04/08 11:26:36;;;;;;;10.30;7.97;;;;;;;9.19;73.07;102630.63;6195416;28;20245;-71
2023/04/08 11:29:58;;;;;;;14.57;7.10;;;;;;;9.25;72.37;102633.63;6203089;28;20451;-71
2023/04/08 11:33:19;;;;;;;9.47;8.33;;;;;;;9.27;72.08;102628.22;6209428;28;20561;-71
2023/04/08 11:36:41;;;;;;;10.97;7.83;;;;;;;9.29;71.73;102628.94;6209761;28;20337;-72
2023/04/08 11:40:02;;;;;;;7.17;6.47;;;;;;;9.55;70.98;102617.25;6200302;28;20602;-71
2023/04/08 11:43:23;;;;;;;7.00;6.30;;;;;;;9.60;70.32;102627.47;6206731;28;20562;-71
2023/04/08 11:46:54;;;;;;;9.63;8.60;;;;;;;9.59;70.41;102621.34;6214901;28;20865;-70
2023/04/08 11:50:24;;;;;;;8.93;5.80;;;;;;;9.45;70.89;102629.47;6203423;28;21020;-71
2023/04/08 11:53:47;;;;;;;10.00;6.17;;;;;;;9.43;71.26;102630.56;6195678;28;20237;-72
2023/04/08 11:57:09;;;;;;;10.00;6.67;;;;;;;9.15;72.70;102630.00;6201294;28;20232;-71
2023/04/08 12:00:31;;;;;;;7.90;7.10;;;;;;;9.19;72.14;102634.09;6203479;28;20235;-72
2023/04/08 12:03:57;;;;;;;9.97;7.67;;;;;;;9.31;72.11;102631.47;6184712;28;20566;-71
2023/04/08 12:07:18;;;;;;;7.90;6.57;;;;;;;9.31;72.40;102634.09;6199689;28;20572;-70
2023/04/08 12:10:40;;;;;;;11.33;7.53;;;;;;;9.29;72.35;102642.13;6186469;28;20233;-71
2023/04/08 12:14:01;;;;;;;6.87;6.17;;;;;;;9.44;71.76;102648.06;6193666;28;20245;-72
2023/04/08 12:17:22;;;;;;;9.07;5.50;;;;;;;9.34;71.43;102642.63;6209175;28;20245;-71
2023/04/08 12:20:43;;;;;;;9.10;6.13;;;;;;;9.34;71.99;102647.88;6179741;28;20230;-71
2023/04/08 12:24:04;;;;;;;8.17;5.97;;;;;;;9.40;71.35;102647.44;6197712;28;20233;-72
2023/04/08 12:27:26;;;;;;;11.77;7.80;;;;;;;9.31;71.30;102645.47;6171728;28;20606;-71
2023/04/08 12:30:47;;;;;;;7.57;6.03;;;;;;;9.48;71.46;102646.88;6197080;28;20233;-72
2023/04/08 12:34:08;;;;;;;11.33;7.07;;;;;;;9.57;70.46;102648.78;6189949;28;21065;-72
2023/04/08 12:37:28;;;;;;;8.50;7.33;;;;;;;9.63;71.05;102645.69;6202156;28;20598;-72
2023/04/08 12:40:49;;;;;;;6.90;6.20;;;;;;;9.70;69.91;102646.91;6184383;28;20233;-72
2023/04/08 12:44:11;;;;;;;6.93;5.97;;;;;;;9.68;69.86;102642.69;6198427;28;20233;-71
2023/04/08 12:47:32;;;;;;;5.83;5.23;;;;;;;9.81;69.74;102644.25;6215064;28;20225;-71
2023/04/08 12:50:53;;;;;;;8.33;6.87;;;;;;;9.81;69.43;102644.25;6179627;28;20320;-71
2023/04/08 12:54:14;;;;;;;10.23;7.60;;;;;;;9.86;69.68;102642.09;6192468;28;20561;-71
2023/04/08 12:57:35;;;;;;;9.00;8.00;;;;;;;9.86;69.40;102641.25;6208343;28;20607;-71
2023/04/08 13:00:57;;;;;;;12.27;7.23;;;;;;;9.62;70.12;102638.72;6200108;28;20244;-72
2023/04/08 13:04:18;;;;;;;14.53;9.90;;;;;;;9.67;70.15;102647.13;6195394;28;20553;-72
2023/04/08 13:07:40;;;;;;;13.53;10.40;;;;;;;9.63;70.60;102653.59;6211832;28;20229;-71
2023/04/08 13:11:00;;;;;;;17.70;8.33;;;;;;;9.58;71.04;102651.28;6194440;28;20305;-71
2023/04/08 13:14:21;;;;;;;7.50;6.40;;;;;;;9.60;70.69;102652.03;6195468;28;20280;-71
2023/04/08 13:17:44;;;;;;;7.57;5.80;;;;;;;9.68;70.48;102656.72;6208616;28;20233;-72
2023/04/08 13:21:05;;;;;;;8.60;5.20;;;;;;;9.58;70.60;102658.38;6191586;28;20225;-71
2023/04/08 13:24:26;;;;;;;7.87;7.07;;;;;;;9.60;70.46;102654.66;6192181;28;20245;-71
2023/04/08 13:27:47;;;;;;;9.87;7.13;;;;;;;9.59;70.69;102654.78;6200167;28;20597;-71
2023/04/08 13:31:08;;;;;;;8.27;6.87;;;;;;;9.61;70.80;102650.22;6201020;28;20285;-71
2023/04/08 13:34:30;;;;;;;10.90;9.90;;;;;;;9.61;70.43;102652.88;6203442;28;20225;-71
2023/04/08 13:37:51;;;;;;;8.07;6.50;;;;;;;9.73;70.58;102651.91;6198957;28;20237;-72
2023/04/08 13:41:12;;;;;;;13.73;9.87;;;;;;;9.69;70.59;102652.28;6194148;28;20241;-70
2023/04/08 13:44:33;;;;;;;9.20;7.40;;;;;;;9.66;70.52;102642.81;6197332;28;20233;-71
2023/04/08 13:47:53;;;;;;;7.77;5.90;;;;;;;9.49;71.02;102646.72;6198653;28;20233;-71
2023/04/08 13:51:16;;;;;;;7.87;6.17;;;;;;;9.55;71.26;102643.63;6195658;28;20237;-71
2023/04/08 13:54:37;;;;;;;7.80;6.10;;;;;;;9.59;71.05;102646.88;6195054;28;21047;-71
2023/04/08 13:57:57;;;;;;;11.33;7.50;;;;;;;9.51;71.10;102647.44;6195027;28;20257;-72
2023/04/08 14:01:18;;;;;;;8.07;6.90;;;;;;;9.33;72.29;102650.63;6195739;28;20570;-72
2023/04/08 14:04:39;;;;;;;16.60;7.87;;;;;;;9.28;72.71;102648.34;6191760;28;20506;-71
2023/04/08 14:08:01;;;;;;;7.33;5.87;;;;;;;9.47;71.63;102643.38;6208414;28;20229;-71
2023/04/08 14:11:22;;;;;;;10.90;7.93;;;;;;;9.19;72.25;102642.00;6177547;28;20570;-72
2023/04/08 14:14:43;;;;;;;6.87;6.23;;;;;;;9.37;72.11;102649.47;6198018;28;20229;-72
2023/04/08 14:18:05;;;;;;;11.13;8.50;;;;;;;9.48;71.93;102641.59;6205819;28;20229;-72
2023/04/08 14:21:25;;;;;;;10.47;7.93;;;;;;;9.44;71.50;102654.16;6176858;28;20232;-72
2023/04/08 14:24:47;;;;;;;8.90;7.77;;;;;;;9.34;71.98;102647.06;6182701;28;20603;-72
2023/04/08 14:28:08;;;;;;;10.63;9.57;;;;;;;9.44;72.08;102650.69;6200059;28;20233;-72
2023/04/08 14:31:29;;;;;;;11.17;7.93;;;;;;;9.45;71.51;102644.47;6172371;28;20237;-71
2023/04/08 14:34:50;;;;;;;13.50;8.87;;;;;;;9.50;71.59;102647.56;6196588;28;20237;-72
2023/04/08 14:38:11;;;;;;;10.80;8.90;;;;;;;9.47;71.54;102650.47;6196740;28;20320;-70
2023/04/08 14:41:33;;;;;;;11.20;9.00;;;;;;;9.53;71.08;102645.53;6196155;28;20237;-73
2023/04/08 14:44:54;;;;;;;10.37;7.23;;;;;;;9.48;71.22;102647.69;6182888;28;20542;-72
2023/04/08 14:48:14;;;;;;;7.77;6.50;;;;;;;9.41;71.54;102643.84;6184519;28;20630;-72
2023/04/08 14:51:36;;;;;;;9.13;8.23;;;;;;;9.37;71.64;102646.81;6173246;28;20253;-72
2023/04/08 14:54:57;;;;;;;10.43;8.03;;;;;;;9.46;71.48;102641.72;6193816;28;20228;-72
2023/04/08 14:58:20;;;;;;;11.97;7.70;;;;;;;9.47;71.62;102645.19;6205631;28;20253;-72
2023/04/08 15:01:41;;;;;;;19.30;8.60;;;;;;;9.37;71.64;102642.41;6202113;28;20503;-71
2023/04/08 15:05:02;;;;;;;10.00;8.33;;;;;;;9.34;71.45;102649.69;6162582;28;20230;-72
2023/04/08 15:08:23;;;;;;;12.23;8.27;;;;;;;9.20;72.71;102646.31;6194366;28;20229;-72
2023/04/08 15:11:44;;;;;;;9.10;8.07;;;;;;;9.21;72.19;102648.00;6201976;28;22307;-72
2023/04/08 15:15:08;;;;;;;11.33;9.47;;;;;;;9.22;72.13;102648.84;6192898;28;20312;-72
2023/04/08 15:18:29;;;;;;;12.40;7.73;;;;;;;9.24;72.77;102658.31;6210443;28;20379;-71
2023/04/08 15:21:50;;;;;;;13.67;9.60;;;;;;;9.24;72.96;102650.41;6195228;28;20498;-72
2023/04/08 15:25:11;;;;;;;9.63;8.63;;;;;;;9.20;72.21;102650.75;6189203;28;20517;-72
2023/04/08 15:28:32;;;;;;;11.10;8.30;;;;;;;8.97;73.31;102646.34;6204827;28;20233;-72
2023/04/08 15:31:54;;;;;;;8.40;7.37;;;;;;;9.09;73.24;102654.16;6209044;28;20851;-72
2023/04/08 15:35:15;;;;;;;9.43;8.27;;;;;;;9.26;73.30;102656.38;6196977;28;20225;-72
2023/04/08 15:38:37;;;;;;;14.53;11.40;;;;;;;9.28;73.00;102658.88;6189805;28;20229;-71
2023/04/08 15:41:58;;;;;;;12.80;9.97;;;;;;;9.32;72.75;102654.22;6205285;28;20512;-72
2023/04/08 15:45:19;;;;;;;16.37;9.87;;;;;;;9.29;73.38;102667.63;6174919;28;20233;-72
2023/04/08 15:48:41;;;;;;;14.17;10.90;;;;;;;9.20;73.29;102669.19;6199676;28;20244;-72